sensor_id;sensor_type;location;lat;lon;timestamp;pressure;altitude;pressure_sealevel;temperature;humidity
44144;BME280;68165;51.920;4.492;2023-05-01T00:01:13;67631.91;;;16.03;63.07
44144;BME280;68165;51.920;4.492;2023-05-01T00:03:38;67631.50;;;16.05;62.70
44144;BME280;68165;51.920;4.492;2023-05-01T00:06:03;67637.94;;;16.06;62.16
44144;BME280;68165;51.920;4.492;2023-05-01T00:08:29;67635.69;;;16.04;62.10
44144;BME280;68165;51.920;4.492;2023-05-01T00:10:56;67632.88;;;16.02;61.88
44144;BME280;68165;51.920;4.492;2023-05-01T00:13:21;67632.88;;;16.02;61.65
44144;BME280;68165;51.920;4.492;2023-05-01T00:15:48;67631.19;;;16.00;61.57
44144;BME280;68165;51.920;4.492;2023-05-01T00:18:13;67628.94;;;15.98;61.36
44144;BME280;68165;51.920;4.492;2023-05-01T00:20:38;67621.84;;;15.94;61.68
44144;BME280;68165;51.920;4.492;2023-05-01T00:23:04;67623.34;;;15.93;61.48
44144;BME280;68165;51.920;4.492;2023-05-01T00:25:29;67629.19;;;15.93;61.53
44144;BME280;68165;51.920;4.492;2023-05-01T00:27:55;67622.78;;;15.92;61.62
44144;BME280;68165;51.920;4.492;2023-05-01T00:30:20;67618.31;;;15.88;62.74
44144;BME280;68165;51.920;4.492;2023-05-01T00:32:46;67614.94;;;15.85;63.21
44144;BME280;68165;51.920;4.492;2023-05-01T00:35:11;67616.22;;;15.89;62.86
44144;BME280;68165;51.920;4.492;2023-05-01T00:37:37;67616.78;;;15.89;62.26
44144;BME280;68165;51.920;4.492;2023-05-01T00:40:03;67618.31;;;15.88;62.05
44144;BME280;68165;51.920;4.492;2023-05-01T00:42:32;67616.78;;;15.89;61.80
44144;BME280;68165;51.920;4.492;2023-05-01T00:44:58;67618.88;;;15.89;61.84
44144;BME280;68165;51.920;4.492;2023-05-01T00:47:23;67615.66;;;15.88;61.87
44144;BME280;68165;51.920;4.492;2023-05-01T00:49:48;67617.19;;;15.87;62.08
44144;BME280;68165;51.920;4.492;2023-05-01T00:52:14;67618.72;;;15.86;62.26
44144;BME280;68165;51.920;4.492;2023-05-01T00:54:40;67618.88;;;15.89;61.88
44144;BME280;68165;51.920;4.492;2023-05-01T00:57:05;67618.88;;;15.89;62.10
44144;BME280;68165;51.920;4.492;2023-05-01T00:59:32;67616.06;;;15.86;62.58
44144;BME280;68165;51.920;4.492;2023-05-01T01:01:57;67612.16;;;15.83;62.60
44144;BME280;68165;51.920;4.492;2023-05-01T01:04:23;67610.31;;;15.79;62.68
44144;BME280;68165;51.920;4.492;2023-05-01T01:07:02;67602.22;;;15.76;62.87
44144;BME280;68165;51.920;4.492;2023-05-01T01:09:48;67602.63;;;15.74;63.28
44144;BME280;68165;51.920;4.492;2023-05-01T01:12:23;67596.63;;;15.71;63.22
44144;BME280;68165;51.920;4.492;2023-05-01T01:17:33;67596.88;;;15.67;63.94
44144;BME280;68165;51.920;4.492;2023-05-01T01:22:50;67580.22;;;15.54;64.45
44144;BME280;68165;51.920;4.492;2023-05-01T01:32:55;67575.00;;;15.47;65.48
44144;BME280;68165;51.920;4.492;2023-05-01T01:35:25;67577.78;;;15.49;65.75
44144;BME280;68165;51.920;4.492;2023-05-01T01:38:02;67578.34;;;15.50;65.74
44144;BME280;68165;51.920;4.492;2023-05-01T01:40:38;67569.88;;;15.49;65.75
44144;BME280;68165;51.920;4.492;2023-05-01T01:43:07;67572.34;;;15.47;66.10
44144;BME280;68165;51.920;4.492;2023-05-01T01:45:45;67567.31;;;15.42;66.07
44144;BME280;68165;51.920;4.492;2023-05-01T01:48:20;67554.91;;;15.38;66.62
44144;BME280;68165;51.920;4.492;2023-05-01T01:50:46;67560.59;;;15.36;66.70
44144;BME280;68165;51.920;4.492;2023-05-01T01:53:13;67555.16;;;15.34;66.87
44144;BME280;68165;51.920;4.492;2023-05-01T01:55:42;67558.34;;;15.34;67.19
44144;BME280;68165;51.920;4.492;2023-05-01T01:58:08;67554.44;;;15.31;67.15
44144;BME280;68165;51.920;4.492;2023-05-01T02:00:35;67553.31;;;15.30;67.05
44144;BME280;68165;51.920;4.492;2023-05-01T02:03:01;67549.81;;;15.24;67.42
44144;BME280;68165;51.920;4.492;2023-05-01T02:05:27;67540.84;;;15.16;67.96
44144;BME280;68165;51.920;4.492;2023-05-01T02:07:52;67531.09;;;15.12;68.26
44144;BME280;68165;51.920;4.492;2023-05-01T02:10:19;67527.16;;;15.08;68.45
44144;BME280;68165;51.920;4.492;2023-05-01T02:12:47;67527.00;;;15.06;68.38
44144;BME280;68165;51.920;4.492;2023-05-01T02:15:14;67526.44;;;15.05;68.54
44144;BME280;68165;51.920;4.492;2023-05-01T02:17:40;67527.56;;;15.06;68.75
44144;BME280;68165;51.920;4.492;2023-05-01T02:20:07;67489.09;;;14.74;69.10
44144;BME280;68165;51.920;4.492;2023-05-01T02:22:34;67479.03;;;14.65;69.77
44144;BME280;68165;51.920;4.492;2023-05-01T02:25:02;67481.25;;;14.67;69.76
44144;BME280;68165;51.920;4.492;2023-05-01T02:27:34;67483.31;;;14.66;70.04
44144;BME280;68165;51.920;4.492;2023-05-01T02:30:00;67508.53;;;14.89;69.33
44144;BME280;68165;51.920;4.492;2023-05-01T02:32:25;67485.19;;;14.70;69.82
44144;BME280;68165;51.920;4.492;2023-05-01T02:34:52;67474.13;;;14.63;70.16
44144;BME280;68165;51.920;4.492;2023-05-01T02:37:18;67466.16;;;14.53;70.67
44144;BME280;68165;51.920;4.492;2023-05-01T02:39:44;67472.53;;;14.54;70.75
44144;BME280;68165;51.920;4.492;2023-05-01T02:42:11;67468.22;;;14.53;70.72
44144;BME280;68165;51.920;4.492;2023-05-01T02:44:41;67464.84;;;14.50;70.86
44144;BME280;68165;51.920;4.492;2023-05-01T02:47:08;67465.41;;;14.50;70.88
44144;BME280;68165;51.920;4.492;2023-05-01T02:49:35;67461.66;;;14.49;71.06
44144;BME280;68165;51.920;4.492;2023-05-01T02:52:01;67464.06;;;14.54;71.04
44144;BME280;68165;51.920;4.492;2023-05-01T02:54:29;67470.69;;;14.50;71.14
44144;BME280;68165;51.920;4.492;2023-05-01T02:56:55;67457.19;;;14.45;71.29
44144;BME280;68165;51.920;4.492;2023-05-01T02:59:22;67463.03;;;14.46;71.51
44144;BME280;68165;51.920;4.492;2023-05-01T03:01:47;67462.28;;;14.43;71.58
44144;BME280;68165;51.920;4.492;2023-05-01T03:04:12;67457.00;;;14.43;71.85
44144;BME280;68165;51.920;4.492;2023-05-01T03:06:38;67450.47;;;14.39;71.77
44144;BME280;68165;51.920;4.492;2023-05-01T03:09:03;67449.19;;;14.36;71.88
44144;BME280;68165;51.920;4.492;2023-05-01T03:11:28;67448.06;;;14.35;72.43
44144;BME280;68165;51.920;4.492;2023-05-01T03:13:54;67442.63;;;14.32;72.36
44144;BME280;68165;51.920;4.492;2023-05-01T03:16:19;67438.16;;;14.28;72.61
44144;BME280;68165;51.920;4.492;2023-05-01T03:18:44;67440.94;;;14.30;72.65
44144;BME280;68165;51.920;4.492;2023-05-01T03:21:10;67447.31;;;14.31;72.53
44144;BME280;68165;51.920;4.492;2023-05-01T03:23:36;67449.00;;;14.33;72.64
44144;BME280;68165;51.920;4.492;2023-05-01T03:26:02;67449.19;;;14.36;72.42
44144;BME280;68165;51.920;4.492;2023-05-01T03:28:27;67441.66;;;14.34;72.66
44144;BME280;68165;51.920;4.492;2023-05-01T03:30:53;67441.91;;;14.29;72.90
44144;BME280;68165;51.920;4.492;2023-05-01T03:33:18;67444.53;;;14.29;72.89
44144;BME280;68165;51.920;4.492;2023-05-01T03:35:43;67437.72;;;14.30;72.95
44144;BME280;68165;51.920;4.492;2023-05-01T03:38:09;67439.81;;;14.29;72.76
44144;BME280;68165;51.920;4.492;2023-05-01T03:40:34;67436.84;;;14.24;72.58
44144;BME280;68165;51.920;4.492;2023-05-01T03:43:00;67435.91;;;14.26;72.68
44144;BME280;68165;51.920;4.492;2023-05-01T03:45:25;67436.47;;;14.26;72.62
44144;BME280;68165;51.920;4.492;2023-05-01T03:47:50;67440.59;;;14.25;72.70
44144;BME280;68165;51.920;4.492;2023-05-01T03:50:16;67439.09;;;14.26;72.58
44144;BME280;68165;51.920;4.492;2023-05-01T03:52:41;67440.03;;;14.25;72.68
44144;BME280;68165;51.920;4.492;2023-05-01T03:55:07;67434.78;;;14.25;72.71
44144;BME280;68165;51.920;4.492;2023-05-01T03:57:33;67441.34;;;14.28;72.84
44144;BME280;68165;51.920;4.492;2023-05-01T03:59:58;67445.81;;;14.32;72.76
44144;BME280;68165;51.920;4.492;2023-05-01T04:02:24;67442.78;;;14.35;72.95
44144;BME280;68165;51.920;4.492;2023-05-01T04:04:49;67448.78;;;14.38;72.84
44144;BME280;68165;51.920;4.492;2023-05-01T04:07:15;67453.28;;;14.42;72.85
44144;BME280;68165;51.920;4.492;2023-05-01T04:09:40;67455.19;;;14.39;72.60
44144;BME280;68165;51.920;4.492;2023-05-01T04:12:06;67452.53;;;14.39;72.83
44144;BME280;68165;51.920;4.492;2023-05-01T04:14:31;67450.28;;;14.37;72.45
44144;BME280;68165;51.920;4.492;2023-05-01T04:16:57;67453.09;;;14.39;72.79
44144;BME280;68165;51.920;4.492;2023-05-01T04:19:22;67453.28;;;14.42;72.53
44144;BME280;68165;51.920;4.492;2023-05-01T04:21:47;67453.09;;;14.39;72.33
44144;BME280;68165;51.920;4.492;2023-05-01T04:24:13;67451.03;;;14.40;72.21
44144;BME280;68165;51.920;4.492;2023-05-01T04:26:38;67451.44;;;14.38;72.39
44144;BME280;68165;51.920;4.492;2023-05-01T04:29:04;67454.06;;;14.38;72.29
44144;BME280;68165;51.920;4.492;2023-05-01T04:31:29;67454.22;;;14.40;72.08
44144;BME280;68165;51.920;4.492;2023-05-01T04:33:54;67457.44;;;14.41;71.91
44144;BME280;68165;51.920;4.492;2023-05-01T04:36:20;67455.75;;;14.39;71.70
44144;BME280;68165;51.920;4.492;2023-05-01T04:38:45;67451.03;;;14.40;71.43
44144;BME280;68165;51.920;4.492;2023-05-01T04:41:11;67451.25;;;14.35;71.36
44144;BME280;68165;51.920;4.492;2023-05-01T04:43:36;67443.56;;;14.30;71.14
44144;BME280;68165;51.920;4.492;2023-05-01T04:46:02;67444.53;;;14.29;70.89
44144;BME280;68165;51.920;4.492;2023-05-01T04:48:28;67436.84;;;14.24;71.15
44144;BME280;68165;51.920;4.492;2023-05-01T04:50:53;67444.53;;;14.29;70.78
44144;BME280;68165;51.920;4.492;2023-05-01T04:53:19;67442.84;;;14.27;70.97
44144;BME280;68165;51.920;4.492;2023-05-01T04:55:44;67445.09;;;14.29;70.72
44144;BME280;68165;51.920;4.492;2023-05-01T04:58:10;67440.94;;;14.30;70.75
44144;BME280;68165;51.920;4.492;2023-05-01T05:00:35;67438.28;;;14.30;70.69
44144;BME280;68165;51.920;4.492;2023-05-01T05:03:01;67449.56;;;14.34;70.57
44144;BME280;68165;51.920;4.492;2023-05-01T05:05:26;67453.50;;;14.37;70.44
44144;BME280;68165;51.920;4.492;2023-05-01T05:07:51;67449.91;;;14.39;70.24
44144;BME280;68165;51.920;4.492;2023-05-01T05:10:17;67455.34;;;14.41;70.20
44144;BME280;68165;51.920;4.492;2023-05-01T05:12:42;67455.34;;;14.41;69.81
44144;BME280;68165;51.920;4.492;2023-05-01T05:15:07;67459.25;;;14.45;69.62
44144;BME280;68165;51.920;4.492;2023-05-01T05:17:33;67459.66;;;14.43;69.50
44144;BME280;68165;51.920;4.492;2023-05-01T05:19:58;67465.28;;;14.48;69.21
44144;BME280;68165;51.920;4.492;2023-05-01T05:22:23;67460.94;;;14.46;69.27
44144;BME280;68165;51.920;4.492;2023-05-01T05:24:53;67463.34;;;14.51;69.43
44144;BME280;68165;51.920;4.492;2023-05-01T05:27:28;67470.63;;;14.57;68.79
44144;BME280;68165;51.920;4.492;2023-05-01T05:29:53;67479.41;;;14.63;68.84
44144;BME280;68165;51.920;4.492;2023-05-01T05:32:18;67490.22;;;14.75;68.48
44144;BME280;68165;51.920;4.492;2023-05-01T05:34:44;67498.06;;;14.82;68.18
44144;BME280;68165;51.920;4.492;2023-05-01T05:37:09;67516.75;;;14.94;68.05
44144;BME280;68165;51.920;4.492;2023-05-01T05:39:35;67521.41;;;15.01;67.54
44144;BME280;68165;51.920;4.492;2023-05-01T05:42:01;67532.28;;;15.06;67.52
44144;BME280;68165;51.920;4.492;2023-05-01T05:44:27;67532.03;;;15.10;67.24
44144;BME280;68165;51.920;4.492;2023-05-01T05:46:53;67533.88;;;15.15;67.00
44144;BME280;68165;51.920;4.492;2023-05-01T05:49:18;67537.78;;;15.18;67.02
44144;BME280;68165;51.920;4.492;2023-05-01T05:51:43;67549.38;;;15.26;66.59
44144;BME280;68165;51.920;4.492;2023-05-01T05:54:08;67563.81;;;15.37;66.36
44144;BME280;68165;51.920;4.492;2023-05-01T05:56:34;67574.44;;;15.46;65.59
44144;BME280;68165;51.920;4.492;2023-05-01T05:58:59;67572.91;;;15.47;65.58
44144;BME280;68165;51.920;4.492;2023-05-01T06:01:27;67577.25;;;15.49;65.53
44144;BME280;68165;51.920;4.492;2023-05-01T06:03:52;67570.28;;;15.47;65.87
44144;BME280;68165;51.920;4.492;2023-05-01T06:06:18;67575.91;;;15.52;65.03
44144;BME280;68165;51.920;4.492;2023-05-01T06:08:43;67580.22;;;15.54;64.87
44144;BME280;68165;51.920;4.492;2023-05-01T06:11:10;67582.88;;;15.54;64.84
44144;BME280;68165;51.920;4.492;2023-05-01T06:13:35;67572.69;;;15.52;64.91
44144;BME280;68165;51.920;4.492;2023-05-01T06:16:01;67579.47;;;15.51;64.89
44144;BME280;68165;51.920;4.492;2023-05-01T06:18:26;67570.28;;;15.47;65.21
44144;BME280;68165;51.920;4.492;2023-05-01T06:20:51;67565.25;;;15.43;65.34
44144;BME280;68165;51.920;4.492;2023-05-01T06:23:17;67573.47;;;15.48;65.38
44144;BME280;68165;51.920;4.492;2023-05-01T06:25:43;67585.25;;;15.59;65.08
44144;BME280;68165;51.920;4.492;2023-05-01T06:28:08;67581.88;;;15.56;65.29
44144;BME280;68165;51.920;4.492;2023-05-01T06:30:33;67583.19;;;15.59;65.55
44144;BME280;68165;51.920;4.492;2023-05-01T06:32:59;67591.03;;;15.66;65.68
44144;BME280;68165;51.920;4.492;2023-05-01T06:35:24;67599.97;;;15.74;65.11
44144;BME280;68165;51.920;4.492;2023-05-01T06:37:50;67606.13;;;15.80;64.93
44144;BME280;68165;51.920;4.492;2023-05-01T06:40:15;67609.91;;;15.81;64.62
44144;BME280;68165;51.920;4.492;2023-05-01T06:42:40;67619.84;;;15.87;64.20
44144;BME280;68165;51.920;4.492;2023-05-01T06:45:06;67621.28;;;15.93;63.90
44144;BME280;68165;51.920;4.492;2023-05-01T06:47:32;67619.84;;;15.87;63.92
44144;BME280;68165;51.920;4.492;2023-05-01T06:49:57;67614.72;;;15.90;63.87
44144;BME280;68165;51.920;4.492;2023-05-01T06:52:23;67623.91;;;15.93;63.89
44144;BME280;68165;51.920;4.492;2023-05-01T06:54:48;67617.34;;;15.90;64.33
44144;BME280;68165;51.920;4.492;2023-05-01T06:57:14;67625.03;;;15.95;64.58
44144;BME280;68165;51.920;4.492;2023-05-01T06:59:39;67629.13;;;16.01;64.50
44144;BME280;68165;51.920;4.492;2023-05-01T07:02:06;67624.22;;;15.99;64.57
44144;BME280;68165;51.920;4.492;2023-05-01T07:04:32;67611.19;;;15.84;65.03
44144;BME280;68165;51.920;4.492;2023-05-01T07:06:57;67617.19;;;15.87;65.02
44144;BME280;68165;51.920;4.492;2023-05-01T07:09:22;67617.91;;;15.90;64.94
44144;BME280;68165;51.920;4.492;2023-05-01T07:11:48;67633.28;;;16.00;64.78
44144;BME280;68165;51.920;4.492;2023-05-01T07:14:16;67624.09;;;15.96;64.64
44144;BME280;68165;51.920;4.492;2023-05-01T07:16:42;67623.34;;;15.93;64.57
44144;BME280;68165;51.920;4.492;2023-05-01T07:19:08;67632.88;;;16.02;63.92
44144;BME280;68165;51.920;4.492;2023-05-01T07:21:34;67624.63;;;15.97;63.46
44144;BME280;68165;51.920;4.492;2023-05-01T07:23:59;67634.56;;;16.03;63.39
44144;BME280;68165;51.920;4.492;2023-05-01T07:26:25;67652.91;;;16.17;62.72
44144;BME280;68165;51.920;4.492;2023-05-01T07:28:51;67653.78;;;16.23;62.83
44144;BME280;68165;51.920;4.492;2023-05-01T07:31:16;67654.72;;;16.21;62.73
44144;BME280;68165;51.920;4.492;2023-05-01T07:33:41;67665.78;;;16.29;62.15
44144;BME280;68165;51.920;4.492;2023-05-01T07:36:07;67670.59;;;16.38;62.05
44144;BME280;68165;51.920;4.492;2023-05-01T07:38:33;67677.00;;;16.39;62.02
44144;BME280;68165;51.920;4.492;2023-05-01T07:40:58;67691.88;;;16.57;61.64
44144;BME280;68165;51.920;4.492;2023-05-01T07:43:23;67709.84;;;16.73;61.10
44144;BME280;68165;51.920;4.492;2023-05-01T07:45:56;67723.84;;;16.86;60.45
44144;BME280;68165;51.920;4.492;2023-05-01T07:48:23;67744.47;;;17.02;59.23
44144;BME280;68165;51.920;4.492;2023-05-01T07:50:49;67759.59;;;17.16;58.36
44144;BME280;68165;51.920;4.492;2023-05-01T08:03:35;67785.00;;;17.41;56.09
44144;BME280;68165;51.920;4.492;2023-05-01T08:11:11;67771.13;;;17.31;55.94
44144;BME280;68165;51.920;4.492;2023-05-01T08:13:36;67775.69;;;17.28;55.99
44144;BME280;68165;51.920;4.492;2023-05-01T08:16:02;67771.53;;;17.29;56.02
44144;BME280;68165;51.920;4.492;2023-05-01T08:18:29;67759.19;;;17.18;56.24
44144;BME280;68165;51.920;4.492;2023-05-01T08:20:54;67758.78;;;17.20;56.38
44144;BME280;68165;51.920;4.492;2023-05-01T08:28:33;67737.88;;;16.99;57.12
44144;BME280;68165;51.920;4.492;2023-05-01T08:30:58;67733.41;;;16.95;57.15
44144;BME280;68165;51.920;4.492;2023-05-01T08:41:15;67758.47;;;17.15;57.27
44144;BME280;68165;51.920;4.492;2023-05-01T08:43:41;67755.84;;;17.15;57.41
44144;BME280;68165;51.920;4.492;2023-05-01T08:46:08;67756.94;;;17.16;57.64
44144;BME280;68165;51.920;4.492;2023-05-01T08:48:34;67760.72;;;17.17;57.92
44144;BME280;68165;51.920;4.492;2023-05-01T08:51:02;67764.22;;;17.23;58.10
44144;BME280;68165;51.920;4.492;2023-05-01T08:53:28;67773.22;;;17.31;58.20
44144;BME280;68165;51.920;4.492;2023-05-01T08:55:56;67787.06;;;17.41;57.73
44144;BME280;68165;51.920;4.492;2023-05-01T08:58:23;67793.97;;;17.49;57.62
44144;BME280;68165;51.920;4.492;2023-05-01T09:00:51;67804.81;;;17.62;57.25
44144;BME280;68165;51.920;4.492;2023-05-01T09:03:18;67810.81;;;17.65;57.27
44144;BME280;68165;51.920;4.492;2023-05-01T09:05:44;67822.44;;;17.73;57.05
44144;BME280;68165;51.920;4.492;2023-05-01T09:10:47;67828.78;;;17.81;57.81
44144;BME280;68165;51.920;4.492;2023-05-01T09:13:12;67830.31;;;17.80;58.02
44144;BME280;68165;51.920;4.492;2023-05-01T09:15:38;67829.19;;;17.79;58.69
44144;BME280;68165;51.920;4.492;2023-05-01T09:18:03;67819.06;;;17.70;59.59
44144;BME280;68165;51.920;4.492;2023-05-01T09:20:30;67804.47;;;17.57;60.45
44144;BME280;68165;51.920;4.492;2023-05-01T09:22:56;67787.25;;;17.43;61.50
44144;BME280;68165;51.920;4.492;2023-05-01T09:25:21;67776.03;;;17.33;62.58
44144;BME280;68165;51.920;4.492;2023-05-01T09:27:47;67765.03;;;17.19;63.69
44144;BME280;68165;51.920;4.492;2023-05-01T09:30:35;67728.91;;;16.91;67.36
44144;BME280;68165;51.920;4.492;2023-05-01T09:33:11;67674.91;;;16.40;72.52
44144;BME280;68165;51.920;4.492;2023-05-01T09:35:49;67638.06;;;16.09;77.02
44144;BME280;68165;51.920;4.492;2023-05-01T09:38:20;67599.97;;;15.74;80.26
44144;BME280;68165;51.920;4.492;2023-05-01T09:40:46;67578.34;;;15.50;83.03
44144;BME280;68165;51.920;4.492;2023-05-01T09:43:22;67557.09;;;15.31;86.18
44144;BME280;68165;51.920;4.492;2023-05-01T09:53:38;67484.63;;;14.70;93.55
44144;BME280;68165;51.920;4.492;2023-05-01T09:56:04;67466.94;;;14.49;95.20
44144;BME280;68165;51.920;4.492;2023-05-01T09:58:30;67439.81;;;14.29;97.53
44144;BME280;68165;51.920;4.492;2023-05-01T10:00:56;67427.50;;;14.18;98.96
44144;BME280;68165;51.920;4.492;2023-05-01T10:03:21;67423.59;;;14.15;100.00
44144;BME280;68165;51.920;4.492;2023-05-01T10:05:47;67415.44;;;14.03;100.00
44144;BME280;68165;51.920;4.492;2023-05-01T10:08:13;67418.25;;;14.05;100.00
44144;BME280;68165;51.920;4.492;2023-05-01T10:10:42;67411.28;;;14.04;100.00
44144;BME280;68165;51.920;4.492;2023-05-01T10:13:15;67419.34;;;14.06;100.00
44144;BME280;68165;51.920;4.492;2023-05-01T10:15:41;67409.59;;;14.02;100.00
44144;BME280;68165;51.920;4.492;2023-05-01T10:18:08;67410.41;;;13.98;100.00
44144;BME280;68165;51.920;4.492;2023-05-01T10:20:34;67411.28;;;14.04;100.00
44144;BME280;68165;51.920;4.492;2023-05-01T10:23:01;67410.34;;;14.05;100.00
44144;BME280;68165;51.920;4.492;2023-05-01T10:25:28;67417.28;;;14.07;100.00
44144;BME280;68165;51.920;4.492;2023-05-01T10:27:54;67421.75;;;14.11;100.00
44144;BME280;68165;51.920;4.492;2023-05-01T10:30:21;67434.88;;;14.18;100.00
44144;BME280;68165;51.920;4.492;2023-05-01T10:32:47;67433.88;;;14.19;100.00
44144;BME280;68165;51.920;4.492;2023-05-01T10:35:22;67431.25;;;14.19;100.00
44144;BME280;68165;51.920;4.492;2023-05-01T10:38:05;67431.44;;;14.22;100.00
44144;BME280;68165;51.920;4.492;2023-05-01T10:40:44;67435.19;;;14.23;100.00
44144;BME280;68165;51.920;4.492;2023-05-01T10:45:45;67434.22;;;14.24;100.00
44144;BME280;68165;51.920;4.492;2023-05-01T10:48:11;67434.94;;;14.27;100.00
44144;BME280;68165;51.920;4.492;2023-05-01T10:53:38;67439.25;;;14.29;100.00
44144;BME280;68165;51.920;4.492;2023-05-01T10:56:03;67434.22;;;14.24;100.00
44144;BME280;68165;51.920;4.492;2023-05-01T11:04:45;67460.69;;;14.51;100.00
44144;BME280;68165;51.920;4.492;2023-05-01T11:09:40;67521.00;;;15.03;100.00
44144;BME280;68165;51.920;4.492;2023-05-01T11:12:08;67528.66;;;15.07;100.00
44144;BME280;68165;51.920;4.492;2023-05-01T11:15:00;67580.38;;;15.57;100.00
44144;BME280;68165;51.920;4.492;2023-05-01T11:17:50;67622.09;;;15.89;100.00
44144;BME280;68165;51.920;4.492;2023-05-01T11:22:55;67691.16;;;16.54;100.00
44144;BME280;68165;51.920;4.492;2023-05-01T11:27:47;67765.91;;;17.24;98.46
44144;BME280;68165;51.920;4.492;2023-05-01T11:30:18;67822.44;;;17.73;96.22
44144;BME280;68165;51.920;4.492;2023-05-01T11:32:45;67861.91;;;18.11;94.25
44144;BME280;68165;51.920;4.492;2023-05-01T11:35:30;67930.38;;;18.72;92.02
44144;BME280;68165;51.920;4.492;2023-05-01T11:37:56;67957.34;;;18.97;89.43
44144;BME280;68165;51.920;4.492;2023-05-01T11:40:32;67986.81;;;19.18;87.72
44144;BME280;68165;51.920;4.492;2023-05-01T11:43:05;68008.88;;;19.41;85.98
44144;BME280;68165;51.920;4.492;2023-05-01T11:45:31;68027.59;;;19.60;84.52
44144;BME280;68165;51.920;4.492;2023-05-01T11:47:58;68048.81;;;19.77;83.61
44144;BME280;68165;51.920;4.492;2023-05-01T11:50:36;68073.13;;;20.01;82.60
44144;BME280;68165;51.920;4.492;2023-05-01T11:53:13;68099.56;;;20.25;80.90
44144;BME280;68165;51.920;4.492;2023-05-01T11:55:41;68109.28;;;20.36;78.77
44144;BME280;68165;51.920;4.492;2023-05-01T11:58:07;68123.03;;;20.44;77.70
44144;BME280;68165;51.920;4.492;2023-05-01T12:00:38;68130.66;;;20.55;76.98
44144;BME280;68165;51.920;4.492;2023-05-01T12:03:13;68151.88;;;20.72;75.81
44144;BME280;68165;51.920;4.492;2023-05-01T12:05:41;68151.28;;;20.71;74.66
44144;BME280;68165;51.920;4.492;2023-05-01T12:08:19;68160.72;;;20.77;74.36
44144;BME280;68165;51.920;4.492;2023-05-01T12:10:48;68149.59;;;20.70;73.55
44144;BME280;68165;51.920;4.492;2023-05-01T12:13:15;68133.16;;;20.53;73.13
44144;BME280;68165;51.920;4.492;2023-05-01T12:15:44;68119.25;;;20.43;72.03
44144;BME280;68165;51.920;4.492;2023-05-01T12:18:14;68104.19;;;20.31;70.35
44144;BME280;68165;51.920;4.492;2023-05-01T12:20:44;68099.78;;;20.20;70.06
44144;BME280;68165;51.920;4.492;2023-05-01T12:23:12;68083.81;;;20.11;69.78
44144;BME280;68165;51.920;4.492;2023-05-01T12:25:40;68106.69;;;20.29;69.63
44144;BME280;68165;51.920;4.492;2023-05-01T12:28:14;68105.16;;;20.30;69.89
44144;BME280;68165;51.920;4.492;2023-05-01T12:30:42;68133.16;;;20.53;69.69
44144;BME280;68165;51.920;4.492;2023-05-01T12:33:13;68155.66;;;20.73;67.45
44144;BME280;68165;51.920;4.492;2023-05-01T12:35:41;68162.41;;;20.79;64.74
44144;BME280;68165;51.920;4.492;2023-05-01T12:38:11;68172.13;;;20.90;65.30
44144;BME280;68165;51.920;4.492;2023-05-01T12:40:39;68162.13;;;20.84;64.69
44144;BME280;68165;51.920;4.492;2023-05-01T12:43:04;68184.63;;;21.04;64.63
44144;BME280;68165;51.920;4.492;2023-05-01T12:45:37;68205.72;;;21.18;64.39
44144;BME280;68165;51.920;4.492;2023-05-01T12:48:11;68219.94;;;21.33;63.06
44144;BME280;68165;51.920;4.492;2023-05-01T12:50:37;68229.81;;;21.47;61.39
44144;BME280;68165;51.920;4.492;2023-05-01T12:53:03;68243.59;;;21.54;59.30
44144;BME280;68165;51.920;4.492;2023-05-01T12:55:29;68248.50;;;21.56;58.40
44144;BME280;68165;51.920;4.492;2023-05-01T12:57:54;68259.75;;;21.67;57.88
44144;BME280;68165;51.920;4.492;2023-05-01T13:00:20;68262.41;;;21.67;57.41
44144;BME280;68165;51.920;4.492;2023-05-01T13:02:45;68232.75;;;21.42;57.48
44144;BME280;68165;51.920;4.492;2023-05-01T13:05:12;68210.66;;;21.20;58.10
44144;BME280;68165;51.920;4.492;2023-05-01T13:07:37;68164.50;;;20.78;59.06
44144;BME280;68165;51.920;4.492;2023-05-01T13:10:06;68156.75;;;20.74;59.48
44144;BME280;68165;51.920;4.492;2023-05-01T13:12:32;68152.44;;;20.72;60.08
44144;BME280;68165;51.920;4.492;2023-05-01T13:14:58;68153.41;;;20.71;59.95
44144;BME280;68165;51.920;4.492;2023-05-01T13:17:28;68148.34;;;20.66;59.91
44144;BME280;68165;51.920;4.492;2023-05-01T13:24:54;68176.88;;;20.90;58.86
44144;BME280;68165;51.920;4.492;2023-05-01T13:27:21;68167.59;;;20.86;59.23
44144;BME280;68165;51.920;4.492;2023-05-01T13:29:52;68163.38;;;20.77;59.57
44144;BME280;68165;51.920;4.492;2023-05-01T13:32:19;68144.56;;;20.65;59.75
44144;BME280;68165;51.920;4.492;2023-05-01T13:34:45;68136.94;;;20.54;59.75
44144;BME280;68165;51.920;4.492;2023-05-01T13:37:10;68138.78;;;20.58;59.27
44144;BME280;68165;51.920;4.492;2023-05-01T13:39:42;68143.97;;;20.65;58.12
44144;BME280;68165;51.920;4.492;2023-05-01T13:42:11;68148.19;;;20.64;57.21
44144;BME280;68165;51.920;4.492;2023-05-01T13:44:50;68158.03;;;20.77;57.18
44144;BME280;68165;51.920;4.492;2023-05-01T13:47:16;68167.88;;;20.82;56.68
44144;BME280;68165;51.920;4.492;2023-05-01T13:49:43;68165.94;;;20.85;56.48
44144;BME280;68165;51.920;4.492;2023-05-01T13:52:17;68183.91;;;21.01;56.18
44144;BME280;68165;51.920;4.492;2023-05-01T13:54:43;68200.09;;;21.13;55.70
44144;BME280;68165;51.920;4.492;2023-05-01T13:57:09;68216.97;;;21.28;54.88
44144;BME280;68165;51.920;4.492;2023-05-01T13:59:45;68239.50;;;21.48;54.95
44144;BME280;68165;51.920;4.492;2023-05-01T14:02:25;68257.66;;;21.67;54.33
44144;BME280;68165;51.920;4.492;2023-05-01T14:04:51;68259.06;;;21.73;53.58
44144;BME280;68165;51.920;4.492;2023-05-01T14:07:18;68272.84;;;21.81;53.54
44144;BME280;68165;51.920;4.492;2023-05-01T14:09:48;68276.22;;;21.84;53.21
44144;BME280;68165;51.920;4.492;2023-05-01T14:12:17;68264.97;;;21.74;53.76
44144;BME280;68165;51.920;4.492;2023-05-01T14:14:46;68254.81;;;21.65;53.72
44144;BME280;68165;51.920;4.492;2023-05-01T14:17:13;68252.28;;;21.57;53.40